Time;durP1;ratioP1;P1;durP2;ratioP2;P2;SDS_P1;SDS_P2;PMS_P1;PMS_P2;Temp;Humidity;BMP_temperature;BMP_pressure;BME280_temperature;BME280_humidity;BME280_pressure;Samples;Min_cycle;Max_cycle;Signal;HPM_P1;HPM_P2
2021/06/19 00:02:27;;;;;;;7.32;6.72;;;;;;;21.58;35.80;100771.59;4860943;28;97438;-78
2021/06/19 00:04:56;;;;;;;11.65;6.55;;;;;;;21.53;36.16;100777.09;4873545;28;98146;-78
2021/06/19 00:07:24;;;;;;;7.45;6.72;;;;;;;21.49;36.29;100771.81;4858111;28;97630;-78
2021/06/19 00:09:52;;;;;;;7.88;7.00;;;;;;;21.42;36.50;100765.63;4858918;28;97643;-77
2021/06/19 00:12:19;;;;;;;7.70;7.10;;;;;;;21.40;36.43;100763.88;4854193;28;97884;-78
2021/06/19 00:14:47;;;;;;;6.97;6.38;;;;;;;21.37;36.54;100767.56;4856583;28;99456;-77
2021/06/19 00:17:15;;;;;;;7.87;7.10;;;;;;;21.75;36.81;100769.38;4849914;28;99767;-77
2021/06/19 00:19:43;;;;;;;8.27;6.68;;;;;;;21.45;37.04;100762.84;4851045;28;97766;-77
2021/06/19 00:22:12;;;;;;;7.35;6.75;;;;;;;21.36;37.05;100762.19;4855191;28;97563;-78
2021/06/19 00:24:40;;;;;;;8.77;6.30;;;;;;;21.30;36.84;100774.06;4855560;28;100971;-78
2021/06/19 00:27:08;;;;;;;7.60;6.88;;;;;;;21.22;36.99;100769.72;4854445;28;99304;-78
2021/06/19 00:29:36;;;;;;;11.80;7.18;;;;;;;21.14;36.76;100767.22;4859774;28;97293;-79
2021/06/19 00:32:05;;;;;;;7.18;6.47;;;;;;;21.11;36.69;100772.69;4856409;28;97710;-77
2021/06/19 00:34:33;;;;;;;7.47;6.90;;;;;;;21.06;36.66;100769.16;4854589;28;99893;-78
2021/06/19 00:37:01;;;;;;;7.63;6.80;;;;;;;21.02;37.06;100764.75;4866896;28;99210;-76
2021/06/19 00:39:30;;;;;;;9.85;6.72;;;;;;;20.98;36.90;100763.00;4854039;28;97645;-77
2021/06/19 00:41:58;;;;;;;7.60;7.00;;;;;;;20.93;36.70;100767.66;4856073;28;97419;-78
2021/06/19 00:44:26;;;;;;;8.60;7.55;;;;;;;20.87;36.68;100767.75;4889944;28;100109;-76
2021/06/19 00:46:54;;;;;;;7.32;6.78;;;;;;;20.83;36.70;100776.91;4858578;28;98901;-77
2021/06/19 00:49:23;;;;;;;8.57;6.28;;;;;;;20.81;37.16;100767.91;4869438;28;97657;-78
2021/06/19 00:51:51;;;;;;;7.15;6.65;;;;;;;20.79;37.09;100772.47;4852054;28;96980;-77
2021/06/19 00:54:19;;;;;;;7.43;6.75;;;;;;;20.76;37.01;100772.50;4885562;28;99466;-76
2021/06/19 00:56:49;;;;;;;7.35;6.70;;;;;;;20.75;37.12;100773.44;4851128;28;99631;-77
2021/06/19 00:59:17;;;;;;;8.98;6.75;;;;;;;20.72;37.04;100768.13;4851491;28;97384;-78
2021/06/19 01:01:45;;;;;;;9.02;6.93;;;;;;;20.69;37.00;100765.44;4853087;28;97681;-77
2021/06/19 01:04:13;;;;;;;7.70;6.93;;;;;;;20.66;37.03;100773.63;4850692;28;99832;-77
2021/06/19 01:06:41;;;;;;;7.38;6.70;;;;;;;20.63;37.09;100765.59;4851520;28;101007;-77
2021/06/19 01:09:10;;;;;;;7.20;6.60;;;;;;;20.53;37.70;100764.00;4888298;28;97054;-77
2021/06/19 01:11:39;;;;;;;9.55;7.20;;;;;;;20.47;37.49;100766.78;4853556;28;96923;-77
2021/06/19 01:14:08;;;;;;;8.25;7.45;;;;;;;20.42;37.98;100774.09;4883191;28;100602;-77
2021/06/19 01:16:36;;;;;;;7.50;6.90;;;;;;;20.38;37.64;100766.94;4852293;28;98171;-78
2021/06/19 01:19:05;;;;;;;9.68;7.43;;;;;;;20.35;37.86;100761.63;4885263;28;97273;-76
2021/06/19 01:21:33;;;;;;;7.43;6.90;;;;;;;20.30;37.95;100763.53;4853443;28;97376;-77
2021/06/19 01:24:00;;;;;;;7.63;7.03;;;;;;;20.30;38.21;100768.94;4851683;28;99326;-77
2021/06/19 01:26:31;;;;;;;8.00;7.43;;;;;;;20.28;38.24;100766.25;4854118;28;100599;-77
2021/06/19 01:29:00;;;;;;;7.93;7.15;;;;;;;20.25;38.50;100757.31;4855289;28;98480;-77
2021/06/19 01:31:28;;;;;;;7.75;7.00;;;;;;;20.24;38.07;100744.72;4851084;28;97625;-78
2021/06/19 01:33:56;;;;;;;8.27;7.43;;;;;;;20.23;38.24;100746.50;4855457;28;100988;-78
2021/06/19 01:36:25;;;;;;;8.27;7.63;;;;;;;20.21;38.73;100752.91;4856914;28;100076;-77
2021/06/19 01:38:54;;;;;;;9.18;8.32;;;;;;;20.19;38.51;100743.91;4860315;28;97368;-78
2021/06/19 01:41:24;;;;;;;9.60;7.90;;;;;;;20.18;39.02;100747.53;4863954;28;98148;-77
2021/06/19 01:44:00;;;;;;;8.98;8.10;;;;;;;20.15;39.17;100742.19;4873094;28;98916;-77
2021/06/19 01:46:28;;;;;;;8.38;7.55;;;;;;;20.14;38.70;100748.53;4861134;28;99383;-77
2021/06/19 01:49:02;;;;;;;7.90;7.30;;;;;;;20.13;39.22;100744.94;4939141;23;97808;31
2021/06/19 01:51:30;;;;;;;10.90;7.40;;;;;;;20.11;38.95;100745.88;4823267;28;100048;-76
2021/06/19 01:53:58;;;;;;;8.80;7.93;;;;;;;20.07;39.08;100746.81;4822206;29;97487;-77
2021/06/19 01:56:26;;;;;;;8.45;7.75;;;;;;;20.04;39.22;100747.81;4824780;29;97630;-77
2021/06/19 01:58:54;;;;;;;8.75;7.75;;;;;;;20.01;39.07;100744.25;4807033;29;97365;-76
2021/06/19 02:01:23;;;;;;;8.35;7.63;;;;;;;19.97;39.47;100748.84;4807437;29;98082;-76
2021/06/19 02:03:52;;;;;;;7.85;7.25;;;;;;;19.94;39.35;100748.88;4821115;29;98097;-76
2021/06/19 02:06:20;;;;;;;8.13;7.43;;;;;;;19.93;39.54;100742.59;4822360;29;99416;-77
2021/06/19 02:09:02;;;;;;;8.40;7.80;;;;;;;19.88;39.18;100747.13;4822172;29;96824;-76
2021/06/19 02:11:29;;;;;;;9.13;8.32;;;;;;;19.88;39.14;100754.38;4820856;29;98008;-76
2021/06/19 02:13:57;;;;;;;8.48;7.78;;;;;;;19.85;39.24;100752.59;4797711;29;100525;-75
2021/06/19 02:16:26;;;;;;;13.40;8.32;;;;;;;19.83;39.19;100756.22;4805764;29;98075;-76
2021/06/19 02:18:54;;;;;;;8.45;7.78;;;;;;;19.77;39.52;100757.22;4821196;29;97843;-76
2021/06/19 02:21:22;;;;;;;8.95;7.93;;;;;;;19.74;39.10;100760.00;4810032;29;97612;-76
2021/06/19 02:23:50;;;;;;;8.77;8.07;;;;;;;19.70;39.45;100752.84;4828121;23;97763;-76
2021/06/19 02:26:17;;;;;;;8.45;7.57;;;;;;;19.70;39.18;100760.09;4839356;28;98067;-75
2021/06/19 02:28:45;;;;;;;10.48;8.10;;;;;;;19.66;39.24;100761.91;4846508;28;96896;-75
2021/06/19 02:31:13;;;;;;;9.20;8.40;;;;;;;19.61;39.28;100769.19;4845107;28;97800;-75
2021/06/19 02:33:43;;;;;;;11.27;7.68;;;;;;;19.58;39.25;100768.38;4846359;28;97689;-75
2021/06/19 02:36:11;;;;;;;8.98;8.27;;;;;;;19.55;39.78;100771.13;4841790;28;99521;-74
2021/06/19 02:38:39;;;;;;;10.73;9.73;;;;;;;19.52;39.83;100771.16;4843041;28;97086;-74
2021/06/19 02:41:06;;;;;;;9.30;8.60;;;;;;;19.51;39.76;100777.47;4830794;28;97580;-78
2021/06/19 02:43:34;;;;;;;8.95;8.15;;;;;;;19.49;40.00;100779.31;4848224;28;98119;-78
2021/06/19 02:46:02;;;;;;;9.93;8.98;;;;;;;19.45;39.99;100774.88;4845841;28;101140;-76
2021/06/19 02:48:30;;;;;;;9.63;8.27;;;;;;;19.43;39.81;100776.69;4844161;28;97253;-77
2021/06/19 02:50:59;;;;;;;9.38;8.38;;;;;;;19.41;39.79;100781.25;4847531;28;97414;-76
2021/06/19 02:53:27;;;;;;;12.38;9.32;;;;;;;19.37;40.32;100788.47;4847235;28;99137;-77
2021/06/19 02:55:56;;;;;;;11.95;9.70;;;;;;;19.36;40.07;100794.81;4830415;28;101016;-76
2021/06/19 02:58:23;;;;;;;10.90;8.60;;;;;;;19.31;40.09;100788.59;4830559;28;97652;-77
2021/06/19 03:00:51;;;;;;;9.65;8.77;;;;;;;19.29;40.19;100794.88;4843252;28;98696;-76
2021/06/19 03:03:19;;;;;;;8.20;7.60;;;;;;;19.27;40.24;100785.91;4845019;28;99326;-75
2021/06/19 03:05:47;;;;;;;10.10;9.13;;;;;;;19.25;40.46;100782.34;4844662;28;99998;-75
2021/06/19 03:08:17;;;;;;;9.80;8.68;;;;;;;19.25;40.94;100783.22;4845297;28;96880;-76
2021/06/19 03:10:45;;;;;;;9.57;8.77;;;;;;;19.23;40.79;100785.06;4846161;28;97620;-77
2021/06/19 03:13:12;;;;;;;9.52;8.77;;;;;;;19.23;41.08;100781.47;4846276;28;100650;-78
2021/06/19 03:15:40;;;;;;;9.75;8.77;;;;;;;19.20;41.10;100777.03;4846024;28;98974;-77
2021/06/19 03:18:08;;;;;;;11.45;8.77;;;;;;;19.19;41.22;100777.91;4846505;28;96936;-77
2021/06/19 03:20:36;;;;;;;9.65;8.65;;;;;;;19.17;40.94;100777.03;4848292;28;97822;-78
2021/06/19 03:23:05;;;;;;;10.25;9.25;;;;;;;19.16;40.93;100777.97;4846850;28;97605;-77
2021/06/19 03:25:36;;;;;;;10.63;9.52;;;;;;;19.16;40.91;100777.06;4831772;28;100362;-78
2021/06/19 03:28:06;;;;;;;15.57;11.27;;;;;;;19.15;41.06;100778.00;4846890;28;97721;-77
2021/06/19 03:30:35;;;;;;;10.13;9.35;;;;;;;19.15;41.28;100772.59;4846734;28;98826;-77
2021/06/19 03:33:04;;;;;;;10.60;9.60;;;;;;;19.12;40.89;100769.94;4831755;28;99336;-77
2021/06/19 03:35:32;;;;;;;10.63;9.63;;;;;;;19.11;41.25;100771.75;4848536;28;99057;-77
2021/06/19 03:38:00;;;;;;;9.70;8.98;;;;;;;19.10;40.79;100767.25;4848003;28;97873;-77
2021/06/19 03:40:29;;;;;;;10.85;9.95;;;;;;;19.08;40.97;100766.38;4847572;28;97437;-78
2021/06/19 03:42:58;;;;;;;10.45;9.55;;;;;;;19.07;41.23;100761.91;4848076;28;99749;-78
2021/06/19 03:45:34;;;;;;;14.77;11.48;;;;;;;19.05;40.97;100774.53;4830404;28;99272;-79
2021/06/19 03:48:03;;;;;;;11.43;10.23;;;;;;;19.06;41.34;100775.44;4847123;28;97732;-76
2021/06/19 03:50:30;;;;;;;11.93;10.68;;;;;;;19.06;41.14;100770.94;4846359;28;98322;-76
2021/06/19 03:52:59;;;;;;;11.38;10.27;;;;;;;19.06;41.23;100778.13;4845709;28;99679;-78
2021/06/19 03:55:28;;;;;;;14.43;13.02;;;;;;;19.02;40.85;100775.44;4830073;28;100323;-78
2021/06/19 03:57:59;;;;;;;12.35;11.32;;;;;;;19.02;41.03;100777.28;4846779;28;97241;-79
2021/06/19 04:00:28;;;;;;;13.52;10.82;;;;;;;18.99;41.23;100785.38;4845819;28;97401;-78
2021/06/19 04:02:57;;;;;;;10.63;9.80;;;;;;;18.98;40.64;100789.00;4845861;28;98662;-77
2021/06/19 04:05:25;;;;;;;11.15;10.23;;;;;;;18.96;41.05;100782.75;4845887;28;98231;-78
2021/06/19 04:07:53;;;;;;;11.93;10.70;;;;;;;18.97;40.82;100782.72;4845144;28;97576;-77
2021/06/19 04:10:22;;;;;;;12.95;11.63;;;;;;;18.98;40.97;100786.31;4848307;28;97384;-77
2021/06/19 04:12:50;;;;;;;11.27;10.20;;;;;;;18.98;41.04;100792.63;4847137;28;98351;-77
2021/06/19 04:15:20;;;;;;;11.70;10.68;;;;;;;18.98;40.83;100791.72;4850731;28;97980;-76
2021/06/19 04:17:48;;;;;;;12.93;10.68;;;;;;;18.98;41.15;100786.31;4848747;28;97031;-76
2021/06/19 04:20:16;;;;;;;12.60;11.45;;;;;;;18.98;40.91;100789.00;4850162;28;97533;-76
2021/06/19 04:22:46;;;;;;;13.70;11.45;;;;;;;18.98;41.35;100787.22;4831428;29;100226;-78
2021/06/19 04:25:15;;;;;;;12.40;11.18;;;;;;;19.00;40.96;100785.41;4844459;28;99290;-78
2021/06/19 04:27:44;;;;;;;11.75;10.55;;;;;;;19.03;41.17;100784.44;4845856;28;97375;-78
2021/06/19 04:30:14;;;;;;;11.88;10.77;;;;;;;19.08;41.13;100773.59;4845589;28;98525;-75
2021/06/19 04:32:44;;;;;;;12.27;11.18;;;;;;;19.10;41.11;100782.56;4826011;28;99996;-77
2021/06/19 04:35:14;;;;;;;11.45;10.55;;;;;;;19.12;41.51;100787.00;4844425;28;98484;-75
2021/06/19 04:37:42;;;;;;;13.13;12.02;;;;;;;19.17;41.01;100786.97;4829710;28;97303;-76
2021/06/19 04:40:16;;;;;;;14.88;13.38;;;;;;;19.20;41.36;100785.13;4830969;28;98747;-76
2021/06/19 04:42:47;;;;;;;12.98;11.77;;;;;;;19.23;41.38;100789.56;4847068;28;98949;-78
2021/06/19 04:45:15;;;;;;;12.88;11.73;;;;;;;19.23;41.51;100800.34;4844192;28;99365;-78
2021/06/19 04:47:45;;;;;;;13.85;12.35;;;;;;;19.19;41.67;100825.63;4843696;28;97190;-77
2021/06/19 04:50:13;;;;;;;13.60;12.20;;;;;;;19.16;41.54;100801.34;4844392;28;97322;-78
2021/06/19 04:52:42;;;;;;;12.82;11.70;;;;;;;19.13;41.79;100821.19;4844776;28;99741;-79
2021/06/19 04:55:12;;;;;;;11.45;10.55;;;;;;;19.10;41.69;100815.81;4846601;28;99490;-80
2021/06/19 04:57:40;;;;;;;12.95;11.65;;;;;;;19.13;41.82;100815.78;4848128;28;96832;-78
2021/06/19 05:00:10;;;;;;;13.70;12.40;;;;;;;19.17;41.53;100816.63;4846130;28;96841;-77
2021/06/19 05:02:38;;;;;;;13.05;11.65;;;;;;;19.20;41.54;100803.09;4846571;28;97803;-77
2021/06/19 05:05:08;;;;;;;12.73;11.50;;;;;;;19.27;41.80;100812.88;4846174;28;98757;-78
2021/06/19 05:07:36;;;;;;;14.55;13.25;;;;;;;19.29;41.53;100817.34;4845140;28;96835;-77
2021/06/19 05:10:05;;;;;;;12.52;11.43;;;;;;;19.35;41.49;100817.31;4846214;28;98151;-77
2021/06/19 05:12:34;;;;;;;12.00;11.00;;;;;;;19.42;41.41;100816.31;4845115;28;99998;-77
2021/06/19 05:15:02;;;;;;;13.38;12.18;;;;;;;19.50;41.38;100816.19;4829167;28;97579;-78
2021/06/19 05:17:31;;;;;;;13.25;12.05;;;;;;;19.57;41.68;100821.47;4843538;28;97571;-77
2021/06/19 05:19:59;;;;;;;14.27;12.57;;;;;;;19.62;41.56;100833.09;4828394;28;97934;-77
2021/06/19 05:22:28;;;;;;;13.90;12.60;;;;;;;19.70;41.46;100831.16;4844320;28;98286;-67
2021/06/19 05:24:56;;;;;;;12.93;11.85;;;;;;;19.74;41.44;100832.00;4841091;28;99207;-67
2021/06/19 05:27:24;;;;;;;13.07;11.88;;;;;;;19.76;41.14;100814.88;4840715;28;97907;-67
2021/06/19 05:29:55;;;;;;;13.88;12.57;;;;;;;19.79;41.53;100817.50;4826568;28;97319;-68
2021/06/19 05:32:23;;;;;;;12.48;11.38;;;;;;;19.86;41.08;100816.47;4839835;28;100595;-68
2021/06/19 05:34:52;;;;;;;13.52;12.00;;;;;;;19.93;41.48;100825.44;4840044;28;100386;-69
2021/06/19 05:37:19;;;;;;;12.48;11.38;;;;;;;19.96;40.89;100828.97;4836352;28;97944;-68
2021/06/19 05:39:49;;;;;;;12.05;11.05;;;;;;;20.03;41.00;100828.88;4842648;28;97814;-68
2021/06/19 05:42:17;;;;;;;13.07;11.60;;;;;;;20.09;41.26;100829.66;4840630;28;98913;-67
2021/06/19 05:44:45;;;;;;;11.75;10.75;;;;;;;20.14;41.28;100827.75;4843065;28;97914;-67
2021/06/19 05:47:13;;;;;;;13.82;10.52;;;;;;;20.23;40.79;100826.72;4843299;28;97405;-68
2021/06/19 05:49:42;;;;;;;10.98;10.02;;;;;;;20.28;40.82;100831.13;4843622;28;97308;-67
2021/06/19 05:52:10;;;;;;;12.18;11.00;;;;;;;20.36;40.80;100823.75;4842116;28;99847;-68
2021/06/19 05:54:38;;;;;;;11.93;10.93;;;;;;;20.41;40.70;100820.97;4842800;28;98389;-68
2021/06/19 05:57:08;;;;;;;12.38;11.27;;;;;;;20.48;40.76;100828.03;4842912;28;97176;-67
2021/06/19 05:59:37;;;;;;;10.95;10.05;;;;;;;20.53;40.30;100815.34;4845997;28;97544;-68
2021/06/19 06:02:05;;;;;;;12.85;10.70;;;;;;;20.57;40.69;100818.00;4846442;28;97929;-67
2021/06/19 06:04:33;;;;;;;11.35;10.25;;;;;;;20.64;40.71;100819.66;4845919;28;100790;-68
2021/06/19 06:07:02;;;;;;;10.68;9.77;;;;;;;20.72;40.66;100830.31;4846093;28;97189;-68
2021/06/19 06:09:30;;;;;;;11.63;10.40;;;;;;;20.77;40.55;100825.69;4845817;28;97818;-69
2021/06/19 06:11:58;;;;;;;11.65;10.57;;;;;;;20.79;40.48;100829.28;4845894;28;99692;-68
2021/06/19 06:14:27;;;;;;;12.18;10.88;;;;;;;20.82;40.50;100826.50;4846214;28;99401;-68
2021/06/19 06:16:55;;;;;;;12.32;10.27;;;;;;;20.86;40.02;100830.94;4845702;28;97910;-67
2021/06/19 06:19:23;;;;;;;12.18;10.77;;;;;;;20.89;40.35;100830.84;4842662;28;99385;-67
2021/06/19 06:21:51;;;;;;;11.13;10.23;;;;;;;20.93;40.08;100827.16;4846196;28;98358;-67
2021/06/19 06:24:19;;;;;;;10.32;9.32;;;;;;;20.97;39.72;100826.19;4846730;28;98416;-68
2021/06/19 06:26:47;;;;;;;10.93;9.95;;;;;;;21.03;40.13;100827.88;4845331;28;97325;-68
2021/06/19 06:29:15;;;;;;;10.73;9.75;;;;;;;21.07;40.04;100835.88;4846063;28;98049;-68
2021/06/19 06:31:51;;;;;;;11.63;10.63;;;;;;;21.12;39.91;100831.31;4829558;28;100242;-69
2021/06/19 06:34:20;;;;;;;11.15;10.15;;;;;;;21.17;39.89;100832.09;4846772;28;98737;-69
2021/06/19 06:36:48;;;;;;;11.80;10.55;;;;;;;21.24;39.54;100832.84;4828800;28;98030;-69
2021/06/19 06:39:16;;;;;;;9.93;9.13;;;;;;;21.27;39.45;100828.25;4845611;28;97069;-69
2021/06/19 06:41:44;;;;;;;13.13;9.77;;;;;;;21.30;39.68;100830.00;4847271;28;98811;-70
2021/06/19 06:44:12;;;;;;;14.93;13.55;;;;;;;21.37;39.51;100845.19;4844501;28;100026;-70
2021/06/19 06:46:39;;;;;;;12.70;11.50;;;;;;;21.39;39.53;100854.16;4844817;28;98005;-70
2021/06/19 06:49:09;;;;;;;11.13;10.00;;;;;;;21.44;39.39;100857.66;4845763;28;97531;-68
2021/06/19 06:51:37;;;;;;;11.35;10.05;;;;;;;21.50;39.52;100857.53;4844439;28;100497;-70
2021/06/19 06:54:05;;;;;;;11.45;10.07;;;;;;;21.52;39.47;100867.41;4826126;28;100368;-68
2021/06/19 06:56:33;;;;;;;15.35;12.93;;;;;;;21.57;39.61;100860.06;4842219;28;98088;-69
2021/06/19 06:59:01;;;;;;;12.75;11.10;;;;;;;21.63;39.32;100870.78;4833195;28;97088;-70
2021/06/19 07:01:29;;;;;;;11.25;10.25;;;;;;;21.66;39.26;100873.41;4844966;28;97507;-70
2021/06/19 07:03:58;;;;;;;10.80;9.90;;;;;;;21.72;39.10;100865.16;4842768;28;101976;-70
2021/06/19 07:06:28;;;;;;;10.90;9.75;;;;;;;21.79;39.25;100869.50;4844233;28;96865;-69
2021/06/19 07:08:56;;;;;;;9.60;8.70;;;;;;;21.86;39.08;100871.16;4846214;28;97102;-69
2021/06/19 07:11:24;;;;;;;12.30;8.82;;;;;;;21.97;38.90;100878.09;4845036;28;99542;-69
2021/06/19 07:13:52;;;;;;;13.25;8.93;;;;;;;22.06;38.84;100872.47;4845149;28;99484;-68
2021/06/19 07:16:20;;;;;;;9.07;8.18;;;;;;;22.14;38.78;100867.75;4847158;28;97794;-69
2021/06/19 07:18:48;;;;;;;12.70;8.50;;;;;;;22.20;38.71;100875.75;4846199;28;97682;-68
2021/06/19 07:21:16;;;;;;;9.80;8.80;;;;;;;22.24;38.77;100872.88;4844839;28;98461;-69
2021/06/19 07:23:45;;;;;;;10.88;8.75;;;;;;;22.33;38.54;100879.97;4829223;28;100447;-69
2021/06/19 07:26:13;;;;;;;8.88;8.00;;;;;;;22.38;38.49;100884.31;4848010;28;97263;-68
2021/06/19 07:28:43;;;;;;;9.45;8.45;;;;;;;22.45;38.43;100877.81;4841130;28;98699;-75
2021/06/19 07:31:13;;;;;;;9.07;7.78;;;;;;;22.51;38.47;100882.19;4844211;28;98186;-74
2021/06/19 07:33:41;;;;;;;10.20;8.35;;;;;;;22.56;38.64;100893.81;4847076;28;98233;-74
2021/06/19 07:36:10;;;;;;;8.68;7.80;;;;;;;22.62;38.29;100880.09;4828621;28;98074;-75
2021/06/19 07:38:38;;;;;;;13.30;8.88;;;;;;;22.70;38.35;100886.16;4847748;28;97455;-75
2021/06/19 07:41:07;;;;;;;12.77;10.48;;;;;;;22.76;38.20;100880.59;4843679;28;100453;-75
2021/06/19 07:43:37;;;;;;;12.60;8.35;;;;;;;22.81;38.04;100884.09;4844001;28;100666;-75
2021/06/19 07:46:05;;;;;;;8.75;7.97;;;;;;;22.88;38.12;100879.41;4827800;28;97378;-75
2021/06/19 07:48:33;;;;;;;12.27;8.43;;;;;;;22.92;38.29;100881.97;4846476;28;97351;-74
2021/06/19 07:51:02;;;;;;;8.65;7.82;;;;;;;22.98;37.82;100880.91;4844378;28;98198;-73
2021/06/19 07:53:30;;;;;;;11.48;7.57;;;;;;;23.04;38.16;100878.03;4841256;28;98197;-75
2021/06/19 07:55:57;;;;;;;9.65;7.97;;;;;;;23.10;38.06;100876.00;4841377;28;97967;-75
2021/06/19 07:58:27;;;;;;;11.55;9.43;;;;;;;23.16;38.04;100886.69;4859348;28;97293;-76
2021/06/19 08:00:54;;;;;;;9.43;8.07;;;;;;;23.17;37.99;100887.59;4844751;28;99116;-76
2021/06/19 08:03:22;;;;;;;14.60;9.13;;;;;;;23.18;38.18;100889.38;4841549;28;98298;-76
2021/06/19 08:05:50;;;;;;;9.38;8.48;;;;;;;23.21;38.01;100892.88;4843806;28;96939;-75
2021/06/19 08:08:18;;;;;;;10.80;9.10;;;;;;;23.29;38.07;100899.00;4833198;28;97455;-76
2021/06/19 08:10:46;;;;;;;12.63;9.52;;;;;;;23.30;38.02;100889.88;4839587;28;99385;-76
2021/06/19 08:13:13;;;;;;;10.40;9.18;;;;;;;23.38;38.15;100893.31;4827952;28;100701;-76
2021/06/19 08:15:43;;;;;;;10.55;7.80;;;;;;;23.46;37.77;100907.53;4843177;28;97074;-78
2021/06/19 08:18:10;;;;;;;14.00;8.43;;;;;;;23.51;37.81;100897.44;4841728;28;97965;-73
2021/06/19 08:20:39;;;;;;;13.82;9.30;;;;;;;23.56;37.71;100903.63;4839963;28;98823;-74
2021/06/19 08:23:07;;;;;;;9.45;8.50;;;;;;;23.60;37.61;100898.97;4837558;28;100101;-75
2021/06/19 08:25:34;;;;;;;15.50;9.93;;;;;;;23.63;37.80;100898.88;4842654;28;96931;-76
2021/06/19 08:28:02;;;;;;;17.30;9.00;;;;;;;23.64;37.61;100901.53;4842136;28;98096;-74
2021/06/19 08:30:30;;;;;;;13.85;9.57;;;;;;;23.66;37.69;100896.94;4857939;28;99367;-74
2021/06/19 08:32:59;;;;;;;14.38;8.98;;;;;;;23.70;38.07;100895.03;4832154;28;100594;-75
2021/06/19 08:35:27;;;;;;;10.60;9.10;;;;;;;23.72;38.12;100888.63;4839318;28;97703;-76
2021/06/19 08:37:55;;;;;;;10.48;9.25;;;;;;;23.75;38.17;100884.91;4844316;28;97966;-75
2021/06/19 08:40:23;;;;;;;12.27;9.82;;;;;;;23.80;37.64;100883.84;4840839;28;99697;-71
2021/06/19 08:42:51;;;;;;;12.90;10.30;;;;;;;23.83;38.04;100889.16;4842180;28;98898;-72
2021/06/19 08:45:19;;;;;;;10.98;8.93;;;;;;;23.87;37.97;100887.22;4840130;28;97784;-72
2021/06/19 08:47:47;;;;;;;9.60;8.77;;;;;;;23.94;37.88;100890.66;4842128;28;97631;-74
2021/06/19 08:50:17;;;;;;;11.55;9.88;;;;;;;23.97;37.89;100888.72;4821879;28;97715;-72
2021/06/19 08:52:46;;;;;;;10.40;9.35;;;;;;;23.99;37.68;100902.31;4826538;28;99874;-75
2021/06/19 08:55:15;;;;;;;16.80;9.20;;;;;;;24.01;37.53;100900.44;4813340;28;97914;-75
2021/06/19 08:57:43;;;;;;;11.38;9.32;;;;;;;23.96;37.85;100902.38;4808021;28;98605;-74
2021/06/19 09:00:13;;;;;;;10.02;8.75;;;;;;;23.95;37.38;100906.06;4822602;28;100485;-74
2021/06/19 09:02:43;;;;;;;15.98;9.27;;;;;;;23.96;37.74;100896.94;4834010;28;98811;-76
2021/06/19 09:05:13;;;;;;;12.40;9.10;;;;;;;23.99;37.61;100894.16;4832450;28;97584;-78
2021/06/19 09:07:45;;;;;;;10.80;9.18;;;;;;;23.99;37.55;100905.03;4833154;28;97487;-76
2021/06/19 09:10:21;;;;;;;9.95;8.73;;;;;;;23.98;37.37;100909.56;4833788;28;99159;-78
2021/06/19 09:13:04;;;;;;;13.65;9.30;;;;;;;24.04;37.93;100905.75;4836246;28;99803;-75
2021/06/19 09:15:35;;;;;;;12.50;10.32;;;;;;;24.09;37.71;100909.22;4839885;28;97242;-74
2021/06/19 09:18:05;;;;;;;13.57;9.32;;;;;;;24.15;37.14;100898.13;4836453;28;97961;-76
2021/06/19 09:20:39;;;;;;;9.60;8.65;;;;;;;24.20;37.55;100899.75;4832254;28;100244;-77
2021/06/19 09:23:09;;;;;;;11.35;8.88;;;;;;;24.26;37.38;100901.41;4837566;28;98016;-76
2021/06/19 09:25:37;;;;;;;16.65;10.07;;;;;;;24.29;37.38;100891.28;4843041;28;97790;-76
2021/06/19 09:28:07;;;;;;;11.20;8.98;;;;;;;24.32;37.54;100899.34;4842561;28;97275;-75
2021/06/19 09:30:35;;;;;;;11.88;9.55;;;;;;;24.36;37.51;100908.28;4843311;28;99357;-77
2021/06/19 09:33:05;;;;;;;11.10;10.00;;;;;;;24.38;37.07;100900.97;4844052;28;99532;-78
2021/06/19 09:35:34;;;;;;;11.45;9.63;;;;;;;24.43;37.02;100899.00;4844914;28;97320;-75
2021/06/19 09:38:04;;;;;;;16.38;10.93;;;;;;;24.46;37.38;100898.91;4827002;29;97151;-76
2021/06/19 09:40:35;;;;;;;12.82;8.68;;;;;;;24.50;37.06;100896.03;4842992;28;100060;-76
2021/06/19 09:43:09;;;;;;;9.02;8.15;;;;;;;24.56;37.34;100903.09;4842264;28;100353;-78
2021/06/19 09:45:38;;;;;;;14.73;9.07;;;;;;;24.60;36.93;100892.06;4846580;28;97400;-77
2021/06/19 09:48:06;;;;;;;11.35;8.50;;;;;;;24.64;37.16;100895.56;4844172;28;97529;-77
2021/06/19 09:50:34;;;;;;;12.70;8.77;;;;;;;24.66;37.18;100896.41;4843818;28;99821;-76
2021/06/19 09:53:20;;;;;;;13.57;9.32;;;;;;;24.69;37.04;100897.16;4829786;28;100367;-77
2021/06/19 09:56:11;;;;;;;12.15;7.30;;;;;;;24.72;37.29;100907.03;4845244;28;97543;-78
2021/06/19 09:58:44;;;;;;;12.48;8.30;;;;;;;24.75;36.94;100912.41;4837001;28;97676;-77
2021/06/19 10:01:21;;;;;;;16.67;8.52;;;;;;;24.76;37.24;100906.91;4842842;28;97772;-77
2021/06/19 10:03:50;;;;;;;12.57;8.50;;;;;;;24.81;36.95;100907.59;4841164;28;101255;-78
2021/06/19 10:06:18;;;;;;;12.27;8.40;;;;;;;24.89;36.98;100907.34;4840576;28;97983;-77
2021/06/19 10:08:47;;;;;;;10.40;7.60;;;;;;;24.94;37.09;100908.09;4836783;28;98176;-76
2021/06/19 10:11:18;;;;;;;12.90;7.45;;;;;;;24.97;36.93;100913.44;4841995;28;98176;-77
2021/06/19 10:13:46;;;;;;;14.88;8.30;;;;;;;25.01;36.86;100914.22;4857296;28;99060;-77
2021/06/19 10:16:16;;;;;;;11.77;8.45;;;;;;;25.02;36.83;100915.97;4841793;28;97796;-77
2021/06/19 10:18:45;;;;;;;11.15;8.15;;;;;;;25.06;36.84;100910.38;4842972;28;97780;-77
2021/06/19 10:21:14;;;;;;;9.50;6.80;;;;;;;25.08;37.01;100911.22;4843517;28;97817;-78
2021/06/19 10:23:42;;;;;;;12.13;6.68;;;;;;;25.10;36.33;100924.78;4817672;28;98441;-77
2021/06/19 10:26:11;;;;;;;10.60;7.68;;;;;;;25.07;36.22;100923.03;4844451;28;98189;-78
2021/06/19 10:28:44;;;;;;;10.02;6.60;;;;;;;25.08;36.35;100913.94;4829076;28;97802;-77
2021/06/19 10:31:17;;;;;;;9.18;6.95;;;;;;;25.08;36.47;100919.38;4841782;28;97413;-77
2021/06/19 10:33:46;;;;;;;12.27;7.38;;;;;;;25.08;36.31;100916.66;4852008;28;97606;-77
2021/06/19 10:36:15;;;;;;;7.65;6.70;;;;;;;25.12;36.20;100921.03;4832520;28;97408;-78
2021/06/19 10:38:51;;;;;;;11.70;6.60;;;;;;;25.13;36.18;100919.19;4842146;28;97800;-78
2021/06/19 10:41:20;;;;;;;12.75;6.82;;;;;;;25.20;36.03;100916.19;4824910;28;99864;-77
2021/06/19 10:43:51;;;;;;;14.63;5.95;;;;;;;25.25;35.85;100922.34;4831217;28;99431;-77
2021/06/19 10:46:34;;;;;;;6.63;5.97;;;;;;;25.23;34.42;100916.06;4840027;28;97322;-77
2021/06/19 10:49:06;;;;;;;10.32;6.03;;;;;;;25.27;35.78;100917.75;4852314;28;97298;-79
2021/06/19 10:51:34;;;;;;;8.63;5.70;;;;;;;25.22;35.70;100918.84;4837604;28;97777;-76
2021/06/19 10:54:07;;;;;;;9.63;6.72;;;;;;;25.22;35.76;100913.41;4827304;28;99826;-78
2021/06/19 10:56:51;;;;;;;10.60;6.18;;;;;;;25.21;35.29;100912.50;4826296;28;99071;-77
2021/06/19 10:59:22;;;;;;;7.18;5.68;;;;;;;25.25;35.28;100907.88;4842360;28;97597;-77
2021/06/19 11:01:51;;;;;;;10.77;6.63;;;;;;;25.32;35.45;100893.06;4840480;28;99718;-77
2021/06/19 11:04:42;;;;;;;8.63;5.65;;;;;;;25.36;35.26;100890.16;4834830;28;101294;-77
2021/06/19 11:07:12;;;;;;;10.70;5.80;;;;;;;25.40;35.01;100889.09;4843252;28;98330;-78
2021/06/19 11:09:40;;;;;;;12.82;6.80;;;;;;;25.44;35.23;100885.31;4843098;28;99005;-78
2021/06/19 11:12:24;;;;;;;8.20;6.22;;;;;;;25.47;34.79;100887.03;4841329;28;100451;-77
2021/06/19 11:14:59;;;;;;;7.63;5.93;;;;;;;25.53;35.04;100886.81;4842855;28;98587;-78
2021/06/19 11:17:47;;;;;;;9.07;5.75;;;;;;;25.58;34.89;100882.06;4841963;28;97850;-78
2021/06/19 11:20:35;;;;;;;15.02;6.57;;;;;;;25.62;34.73;100870.97;4842219;28;97755;-79
2021/06/19 11:23:07;;;;;;;11.63;5.95;;;;;;;25.68;34.07;100876.19;4836208;28;99368;-76
2021/06/19 11:25:42;;;;;;;9.27;5.40;;;;;;;25.73;34.68;100882.34;4841442;28;100070;-79
2021/06/19 11:28:11;;;;;;;7.35;5.47;;;;;;;25.67;34.61;100871.69;4844620;28;97416;-77